Time;durP1;ratioP1;P1;durP2;ratioP2;P2;SDS_P1;SDS_P2;PMS_P1;PMS_P2;Temp;Humidity;BMP_temperature;BMP_pressure;BME280_temperature;BME280_humidity;BME280_pressure;Samples;Min_cycle;Max_cycle;Signal;HPM_P1;HPM_P2
2024/02/23 00:00:44;;;;;;;13.05;1.88;;;;;;;;;;5113626;28;20080;-29
2024/02/23 00:03:10;;;;;;;10.63;1.83;;;;;;;;;;5113456;28;20062;-28
2024/02/23 00:05:35;;;;;;;15.60;2.55;;;;;;;;;;5113732;28;20280;-29
2024/02/23 00:08:00;;;;;;;13.70;2.70;;;;;;;;;;5113896;28;20591;-29
2024/02/23 00:10:26;;;;;;;10.03;1.73;;;;;;;;;;5114028;28;20258;-28
2024/02/23 00:12:51;;;;;;;12.15;1.98;;;;;;;;;;5113942;28;20280;-28
2024/02/23 00:15:16;;;;;;;21.13;2.45;;;;;;;;;;5113984;28;20393;-30
2024/02/23 00:17:41;;;;;;;13.48;1.92;;;;;;;;;;5113936;28;20024;-30
2024/02/23 00:20:10;;;;;;;9.97;1.80;;;;;;;;;;5113947;28;20024;-30
2024/02/23 00:22:35;;;;;;;15.27;2.05;;;;;;;;;;5114154;28;20293;-30
2024/02/23 00:25:00;;;;;;;10.98;1.90;;;;;;;;;;5113791;28;20015;-30
2024/02/23 00:27:26;;;;;;;11.27;1.83;;;;;;;;;;5095595;28;20403;-30
2024/02/23 00:29:51;;;;;;;10.23;1.80;;;;;;;;;;5114390;28;20257;-29
2024/02/23 00:32:16;;;;;;;12.43;2.00;;;;;;;;;;5114380;28;20042;-31
2024/02/23 00:34:41;;;;;;;14.47;2.23;;;;;;;;;;5117354;28;20416;-30
2024/02/23 00:37:07;;;;;;;10.20;2.05;;;;;;;;;;5118222;28;20269;-30
2024/02/23 00:39:33;;;;;;;8.30;1.75;;;;;;;;;;5118241;28;20024;-30
2024/02/23 00:41:58;;;;;;;16.70;2.00;;;;;;;;;;5118524;28;20054;-30
2024/02/23 00:44:23;;;;;;;11.87;1.80;;;;;;;;;;5117867;28;20137;-30
2024/02/23 00:46:49;;;;;;;10.73;1.60;;;;;;;;;;5117714;28;20315;-31
2024/02/23 00:49:14;;;;;;;9.15;1.92;;;;;;;;;;5117760;28;20019;-30
2024/02/23 00:51:39;;;;;;;13.48;2.00;;;;;;;;;;5118290;28;20008;-30
2024/02/23 00:54:04;;;;;;;13.60;1.93;;;;;;;;;;5117635;28;20378;-30
2024/02/23 00:56:29;;;;;;;11.93;1.88;;;;;;;;;;5117860;28;20260;-30
2024/02/23 00:58:55;;;;;;;14.70;2.20;;;;;;;;;;5117621;28;20023;-30
2024/02/23 01:01:20;;;;;;;18.40;2.10;;;;;;;;;;5118037;28;20250;-30
2024/02/23 01:03:45;;;;;;;12.47;1.80;;;;;;;;;;5117307;28;20364;-30
2024/02/23 01:06:10;;;;;;;11.47;1.70;;;;;;;;;;5117316;28;20281;-30
2024/02/23 01:08:35;;;;;;;12.80;2.77;;;;;;;;;;5117428;28;20265;-30
2024/02/23 01:11:01;;;;;;;8.80;1.83;;;;;;;;;;5118088;28;20357;-30
2024/02/23 01:13:26;;;;;;;9.75;1.90;;;;;;;;;;5117271;28;20507;-29
2024/02/23 01:15:53;;;;;;;16.67;2.40;;;;;;;;;;5117777;28;20019;-30
2024/02/23 01:18:18;;;;;;;13.40;1.88;;;;;;;;;;5117196;28;20264;-30
2024/02/23 01:20:44;;;;;;;10.20;1.70;;;;;;;;;;5117736;28;20020;-30
2024/02/23 01:23:09;;;;;;;15.23;2.55;;;;;;;;;;5117355;28;20700;-30
2024/02/23 01:25:34;;;;;;;9.73;1.77;;;;;;;;;;5117015;28;20115;-31
2024/02/23 01:28:00;;;;;;;13.20;1.73;;;;;;;;;;5116839;28;20258;-30
2024/02/23 01:30:25;;;;;;;7.60;1.73;;;;;;;;;;5117106;28;20043;-30
2024/02/23 01:32:50;;;;;;;9.03;1.63;;;;;;;;;;5117022;28;20481;-30
2024/02/23 01:35:16;;;;;;;7.25;1.55;;;;;;;;;;5117018;28;20269;-30
2024/02/23 01:37:41;;;;;;;9.20;1.70;;;;;;;;;;5117051;28;20064;-30
2024/02/23 01:40:06;;;;;;;12.15;1.60;;;;;;;;;;5116930;28;20050;-30
2024/02/23 01:42:31;;;;;;;9.25;1.70;;;;;;;;;;5116793;28;20020;-30
2024/02/23 01:44:57;;;;;;;8.10;1.40;;;;;;;;;;5116549;28;20016;-30
2024/02/23 01:47:22;;;;;;;9.02;1.50;;;;;;;;;;5116642;28;20526;-30
2024/02/23 01:49:48;;;;;;;10.38;1.50;;;;;;;;;;5116824;28;20022;-30
2024/02/23 01:52:14;;;;;;;6.93;1.35;;;;;;;;;;5116588;28;20015;-30
2024/02/23 01:54:40;;;;;;;9.88;1.65;;;;;;;;;;5116467;28;20026;-30
2024/02/23 01:57:06;;;;;;;8.52;1.50;;;;;;;;;;5116475;28;20042;-30
2024/02/23 01:59:31;;;;;;;8.98;1.20;;;;;;;;;;5116429;28;20019;-29
2024/02/23 02:01:56;;;;;;;10.88;1.67;;;;;;;;;;5116316;28;20031;-30
2024/02/23 02:04:21;;;;;;;7.10;1.40;;;;;;;;;;5116129;28;20039;-30
2024/02/23 02:06:47;;;;;;;11.75;1.75;;;;;;;;;;5116196;28;20122;-29
2024/02/23 02:09:13;;;;;;;9.40;1.17;;;;;;;;;;5116503;28;20024;-29
2024/02/23 02:11:47;;;;;;;11.75;1.50;;;;;;;;;;5116339;28;20371;-30
2024/02/23 02:14:13;;;;;;;5.63;1.20;;;;;;;;;;5116122;28;20011;-30
2024/02/23 02:16:38;;;;;;;6.57;1.50;;;;;;;;;;5116363;28;20366;-37
2024/02/23 02:19:04;;;;;;;4.97;1.23;;;;;;;;;;5116358;28;20424;-29
2024/02/23 02:21:29;;;;;;;7.83;1.50;;;;;;;;;;5116572;28;20024;-29
2024/02/23 02:23:54;;;;;;;7.72;1.20;;;;;;;;;;5115987;28;20688;-30
2024/02/23 02:26:19;;;;;;;7.50;1.10;;;;;;;;;;5116130;28;20467;-29
2024/02/23 02:28:44;;;;;;;10.70;1.43;;;;;;;;;;5116425;28;20246;-29
2024/02/23 02:31:10;;;;;;;7.57;1.77;;;;;;;;;;5115781;28;20250;-29
2024/02/23 02:33:35;;;;;;;10.65;1.33;;;;;;;;;;5116286;28;20070;-29
2024/02/23 02:36:00;;;;;;;10.23;1.60;;;;;;;;;;5115678;28;20085;-29
2024/02/23 02:38:25;;;;;;;5.53;1.13;;;;;;;;;;5115622;28;20265;-29
2024/02/23 02:40:50;;;;;;;8.95;1.73;;;;;;;;;;5116131;28;20250;-29
2024/02/23 02:43:16;;;;;;;11.52;1.50;;;;;;;;;;5115576;28;20011;-29
2024/02/23 02:45:41;;;;;;;10.43;1.50;;;;;;;;;;5097156;28;20020;-29
2024/02/23 02:48:07;;;;;;;11.48;1.60;;;;;;;;;;5115483;28;20019;-29
2024/02/23 02:50:32;;;;;;;8.32;1.88;;;;;;;;;;5115910;28;20031;-30
2024/02/23 02:52:57;;;;;;;7.40;1.42;;;;;;;;;;5115347;28;20494;-29
2024/02/23 02:55:22;;;;;;;9.63;1.60;;;;;;;;;;5115583;28;20019;-30
2024/02/23 02:57:48;;;;;;;12.48;1.40;;;;;;;;;;5115053;28;20409;-29
2024/02/23 03:00:13;;;;;;;8.77;1.77;;;;;;;;;;5115230;28;20020;-28
2024/02/23 03:02:38;;;;;;;9.57;1.73;;;;;;;;;;5115393;28;20272;-28
2024/02/23 03:05:04;;;;;;;9.70;1.55;;;;;;;;;;5114883;28;20409;-28
2024/02/23 03:07:29;;;;;;;15.52;1.80;;;;;;;;;;5115331;28;20446;-28
2024/02/23 03:09:54;;;;;;;9.70;1.73;;;;;;;;;;5115623;28;20082;-28
2024/02/23 03:12:20;;;;;;;7.32;1.52;;;;;;;;;;5115377;28;20260;-28
2024/02/23 03:14:45;;;;;;;10.02;1.30;;;;;;;;;;5115440;28;20023;-28
2024/02/23 03:17:10;;;;;;;8.45;1.45;;;;;;;;;;5115098;28;20031;-28
2024/02/23 03:19:36;;;;;;;8.85;1.27;;;;;;;;;;5114834;28;20053;-29
2024/02/23 03:22:01;;;;;;;18.45;2.08;;;;;;;;;;5114764;28;20015;-28
2024/02/23 03:24:26;;;;;;;18.98;2.33;;;;;;;;;;5115247;28;20020;-28
2024/02/23 03:26:51;;;;;;;9.18;1.50;;;;;;;;;;5096312;28;20072;-28
2024/02/23 03:29:17;;;;;;;11.00;1.80;;;;;;;;;;5114688;28;20027;-28
2024/02/23 03:31:42;;;;;;;11.43;2.13;;;;;;;;;;5115127;28;20007;-28
2024/02/23 03:34:07;;;;;;;7.63;1.63;;;;;;;;;;5115060;28;20325;-28
2024/02/23 03:36:33;;;;;;;14.30;1.70;;;;;;;;;;5114548;28;20052;-28
2024/02/23 03:38:58;;;;;;;12.50;1.73;;;;;;;;;;5114492;28;20020;-29
2024/02/23 03:41:23;;;;;;;8.57;1.50;;;;;;;;;;5114991;28;20019;-28
2024/02/23 03:43:48;;;;;;;11.27;2.13;;;;;;;;;;5114949;28;20245;-28
2024/02/23 03:46:14;;;;;;;8.67;2.10;;;;;;;;;;5114812;28;20269;-28
2024/02/23 03:48:40;;;;;;;6.07;1.65;;;;;;;;;;5114542;28;20763;-28
2024/02/23 03:51:05;;;;;;;12.93;1.98;;;;;;;;;;5114313;28;20324;-28
2024/02/23 03:53:30;;;;;;;9.68;1.75;;;;;;;;;;5114781;28;20054;-28
2024/02/23 03:55:56;;;;;;;7.40;1.60;;;;;;;;;;5114743;28;20050;-28
2024/02/23 03:58:21;;;;;;;8.82;1.90;;;;;;;;;;5114124;28;20254;-28
2024/02/23 04:00:46;;;;;;;15.03;2.57;;;;;;;;;;5114056;28;20347;-28
2024/02/23 04:03:12;;;;;;;9.52;1.92;;;;;;;;;;5113917;28;20281;-28
2024/02/23 04:05:37;;;;;;;10.05;1.85;;;;;;;;;;5114562;28;20015;-28
2024/02/23 04:08:02;;;;;;;10.20;2.22;;;;;;;;;;5113979;28;20031;-28
2024/02/23 04:10:28;;;;;;;6.05;1.52;;;;;;;;;;5113878;28;20007;-28
2024/02/23 04:12:53;;;;;;;7.93;2.00;;;;;;;;;;5113913;28;20118;-28
2024/02/23 04:15:18;;;;;;;7.43;2.00;;;;;;;;;;5114530;28;20024;-27
2024/02/23 04:17:43;;;;;;;8.50;1.53;;;;;;;;;;5113890;28;20261;-27
2024/02/23 04:20:12;;;;;;;11.00;1.70;;;;;;;;;;5114415;28;20349;-28
2024/02/23 04:22:37;;;;;;;7.10;1.65;;;;;;;;;;5114376;28;20257;-28
2024/02/23 04:25:03;;;;;;;10.30;1.90;;;;;;;;;;5113763;28;20103;-28
2024/02/23 04:27:28;;;;;;;10.20;1.80;;;;;;;;;;5095616;28;20043;-28
2024/02/23 04:29:53;;;;;;;8.07;1.30;;;;;;;;;;5114068;28;20012;-28
2024/02/23 04:32:18;;;;;;;11.90;2.00;;;;;;;;;;5114243;28;20098;-28
2024/02/23 04:34:43;;;;;;;5.23;1.20;;;;;;;;;;5095527;28;20270;-28
2024/02/23 04:37:09;;;;;;;8.43;1.70;;;;;;;;;;5114242;28;20257;-28
2024/02/23 04:39:34;;;;;;;5.05;1.50;;;;;;;;;;5113715;28;20746;-28
2024/02/23 04:41:59;;;;;;;5.77;1.40;;;;;;;;;;5113696;28;20042;-28
2024/02/23 04:44:24;;;;;;;8.52;1.50;;;;;;;;;;5114191;28;20344;-28
2024/02/23 04:46:49;;;;;;;9.47;2.00;;;;;;;;;;5113491;28;20080;-28
2024/02/23 04:49:14;;;;;;;8.07;1.92;;;;;;;;;;5113545;28;20254;-27
2024/02/23 04:51:40;;;;;;;14.20;2.20;;;;;;;;;;5114158;28;20027;-28
2024/02/23 04:54:05;;;;;;;8.15;1.88;;;;;;;;;;5113626;28;20861;-28
2024/02/23 04:56:30;;;;;;;16.15;2.40;;;;;;;;;;5114089;28;20011;-27
2024/02/23 04:58:55;;;;;;;7.03;2.13;;;;;;;;;;5113755;28;20027;-28
2024/02/23 05:01:21;;;;;;;12.10;2.20;;;;;;;;;;5113473;28;20455;-28
2024/02/23 05:03:46;;;;;;;7.22;2.10;;;;;;;;;;5112835;28;20382;-28
2024/02/23 05:06:12;;;;;;;15.50;2.40;;;;;;;;;;5112911;28;20103;-29
2024/02/23 05:08:37;;;;;;;8.60;2.42;;;;;;;;;;5113121;28;20047;-28
2024/02/23 05:11:03;;;;;;;12.63;2.10;;;;;;;;;;5112786;28;20412;-28
2024/02/23 05:13:28;;;;;;;10.18;2.38;;;;;;;;;;5113078;28;20028;-28
2024/02/23 05:15:55;;;;;;;11.10;2.15;;;;;;;;;;5112769;28;20020;-28
2024/02/23 05:18:20;;;;;;;9.43;2.20;;;;;;;;;;5113245;28;20482;-28
2024/02/23 05:20:45;;;;;;;7.85;2.30;;;;;;;;;;5117219;28;20058;-28
2024/02/23 05:23:10;;;;;;;12.43;2.53;;;;;;;;;;5117687;28;20058;-28
2024/02/23 05:25:36;;;;;;;14.45;2.80;;;;;;;;;;5116968;28;20330;-29
2024/02/23 05:28:01;;;;;;;8.68;2.45;;;;;;;;;;5117303;28;20073;-28
2024/02/23 05:30:31;;;;;;;7.67;2.30;;;;;;;;;;5098773;28;20008;-28
2024/02/23 05:32:57;;;;;;;6.15;2.15;;;;;;;;;;5116839;28;20267;-29
2024/02/23 05:35:22;;;;;;;12.48;2.60;;;;;;;;;;5117209;28;20015;-28
2024/02/23 05:37:47;;;;;;;5.93;2.20;;;;;;;;;;5116737;28;20019;-28
2024/02/23 05:40:12;;;;;;;10.97;2.80;;;;;;;;;;5117368;28;20253;-28
2024/02/23 05:42:38;;;;;;;10.38;2.42;;;;;;;;;;5116997;28;20249;-28
2024/02/23 05:45:04;;;;;;;12.95;2.60;;;;;;;;;;5116924;28;20463;-28
2024/02/23 05:47:29;;;;;;;11.90;2.78;;;;;;;;;;5116530;28;20027;-28
2024/02/23 05:49:54;;;;;;;9.35;2.70;;;;;;;;;;5116883;28;20023;-28
2024/02/23 05:52:20;;;;;;;5.87;2.47;;;;;;;;;;5117073;28;20095;-28
2024/02/23 05:54:45;;;;;;;9.82;2.50;;;;;;;;;;5116520;28;20632;-28
2024/02/23 05:57:10;;;;;;;7.27;2.90;;;;;;;;;;5116484;28;20019;-28
2024/02/23 05:59:35;;;;;;;6.53;2.42;;;;;;;;;;5116929;28;20292;-28
2024/02/23 06:02:00;;;;;;;9.82;2.45;;;;;;;;;;5116855;28;20016;-28
2024/02/23 06:04:27;;;;;;;7.50;3.13;;;;;;;;;;5116187;28;20051;-28
2024/02/23 06:06:52;;;;;;;11.07;3.10;;;;;;;;;;5116443;28;20028;-29
2024/02/23 06:09:18;;;;;;;11.77;3.25;;;;;;;;;;5097976;28;20100;-29
2024/02/23 06:11:43;;;;;;;10.65;3.13;;;;;;;;;;5116356;28;20098;-29
2024/02/23 06:14:08;;;;;;;8.33;3.10;;;;;;;;;;5116137;28;20482;-28
2024/02/23 06:16:34;;;;;;;8.03;2.90;;;;;;;;;;5116619;28;20253;-28
2024/02/23 06:18:59;;;;;;;10.45;3.20;;;;;;;;;;5116258;28;20285;-28
2024/02/23 06:21:24;;;;;;;7.68;3.10;;;;;;;;;;5115971;28;20356;-29
2024/02/23 06:23:49;;;;;;;13.88;4.60;;;;;;;;;;5115997;28;20030;-28
2024/02/23 06:26:15;;;;;;;4.73;2.37;;;;;;;;;;5116368;28;20119;-28
2024/02/23 06:28:43;;;;;;;8.10;2.92;;;;;;;;;;5116105;28;20274;-28
2024/02/23 06:31:09;;;;;;;8.32;3.30;;;;;;;;;;5115787;28;20027;-28
2024/02/23 06:33:34;;;;;;;12.73;3.03;;;;;;;;;;5115915;28;20023;-28
2024/02/23 06:35:59;;;;;;;7.80;2.70;;;;;;;;;;5115706;28;20470;-29
2024/02/23 06:38:25;;;;;;;9.70;3.15;;;;;;;;;;5115668;28;20265;-28
2024/02/23 06:40:50;;;;;;;9.70;2.80;;;;;;;;;;5115565;28;20024;-28
2024/02/23 06:43:15;;;;;;;8.48;2.60;;;;;;;;;;5115889;28;20019;-29
2024/02/23 06:45:40;;;;;;;9.07;2.88;;;;;;;;;;5115505;28;20424;-28
2024/02/23 06:48:06;;;;;;;7.10;2.45;;;;;;;;;;5115421;28;20016;-28
2024/02/23 06:50:31;;;;;;;7.22;2.67;;;;;;;;;;5115319;28;20058;-28
2024/02/23 06:52:56;;;;;;;4.60;2.17;;;;;;;;;;5115343;28;20016;-29
2024/02/23 06:55:21;;;;;;;7.47;2.50;;;;;;;;;;5115344;28;20260;-30
2024/02/23 06:57:47;;;;;;;8.65;2.90;;;;;;;;;;5115302;28;20336;-29
2024/02/23 07:00:12;;;;;;;8.05;3.03;;;;;;;;;;5115157;28;20466;-29
2024/02/23 07:02:37;;;;;;;6.72;2.38;;;;;;;;;;5115175;28;20024;-28
2024/02/23 07:05:06;;;;;;;9.75;2.92;;;;;;;;;;5115004;28;20043;-29
2024/02/23 07:07:32;;;;;;;7.25;1.98;;;;;;;;;;5115112;28;20026;-29
2024/02/23 07:09:58;;;;;;;5.28;2.17;;;;;;;;;;5115009;28;20011;-29
2024/02/23 07:12:23;;;;;;;8.90;2.20;;;;;;;;;;5114891;28;20019;-28
2024/02/23 07:14:48;;;;;;;5.27;2.33;;;;;;;;;;5115155;28;20086;-29
2024/02/23 07:17:16;;;;;;;7.97;2.28;;;;;;;;;;5114863;28;20276;-28
2024/02/23 07:19:42;;;;;;;6.10;2.10;;;;;;;;;;5115035;28;20049;-28
2024/02/23 07:22:07;;;;;;;8.93;2.20;;;;;;;;;;5115336;28;20076;-28
2024/02/23 07:24:32;;;;;;;10.40;2.30;;;;;;;;;;5114718;28;20569;-29
2024/02/23 07:26:58;;;;;;;6.97;1.90;;;;;;;;;;5114805;28;20337;-28
2024/02/23 07:29:23;;;;;;;8.30;2.07;;;;;;;;;;5115212;28;20087;-28
2024/02/23 07:31:50;;;;;;;7.43;2.13;;;;;;;;;;5114524;28;20281;-28
2024/02/23 07:34:16;;;;;;;11.13;2.25;;;;;;;;;;5114496;28;20141;-29
2024/02/23 07:36:42;;;;;;;8.53;2.07;;;;;;;;;;5114573;28;20047;-28
2024/02/23 07:39:07;;;;;;;5.78;1.80;;;;;;;;;;5096227;28;20699;-29
2024/02/23 07:41:33;;;;;;;5.30;2.23;;;;;;;;;;5114478;28;20100;-28
2024/02/23 07:43:58;;;;;;;5.13;1.95;;;;;;;;;;5096417;28;20253;-29
2024/02/23 07:46:25;;;;;;;13.88;2.45;;;;;;;;;;5112969;28;20019;-28
2024/02/23 07:48:50;;;;;;;4.68;1.15;;;;;;;;;;5094579;28;20060;-28
2024/02/23 07:51:15;;;;;;;7.60;1.80;;;;;;;;;;5113788;28;20404;-28
2024/02/23 07:53:40;;;;;;;6.23;1.40;;;;;;;;;;5114780;28;20253;-28
2024/02/23 07:56:07;;;;;;;7.82;1.40;;;;;;;;;;5113763;28;20613;-28
2024/02/23 07:58:32;;;;;;;5.85;1.60;;;;;;;;;;5111881;28;20020;-29
2024/02/23 08:00:57;;;;;;;10.67;1.53;;;;;;;;;;5111848;28;20011;-29
2024/02/23 08:03:23;;;;;;;10.27;1.77;;;;;;;;;;5111817;28;20285;-28
2024/02/23 08:05:48;;;;;;;9.52;1.42;;;;;;;;;;5111940;28;20336;-28
2024/02/23 08:08:13;;;;;;;8.13;1.67;;;;;;;;;;5111868;28;20016;-28
2024/02/23 08:10:38;;;;;;;6.78;1.10;;;;;;;;;;5111771;28;20302;-32
2024/02/23 08:13:04;;;;;;;14.07;1.87;;;;;;;;;;5113602;28;20344;-29
2024/02/23 08:15:29;;;;;;;9.10;2.55;;;;;;;;;;5113791;28;20394;-29
2024/02/23 08:17:54;;;;;;;9.23;1.50;;;;;;;;;;5113880;28;20026;-28
2024/02/23 08:20:19;;;;;;;8.23;1.40;;;;;;;;;;5114088;28;20249;-29
2024/02/23 08:22:44;;;;;;;8.63;1.53;;;;;;;;;;5114291;28;20016;-28
2024/02/23 08:25:10;;;;;;;5.55;1.30;;;;;;;;;;5114456;28;20268;-28
2024/02/23 08:27:35;;;;;;;9.18;1.27;;;;;;;;;;5113806;28;20105;-28
2024/02/23 08:30:00;;;;;;;5.60;1.07;;;;;;;;;;5095475;28;20012;-28
2024/02/23 08:32:25;;;;;;;7.33;1.50;;;;;;;;;;5113762;28;20285;-28
2024/02/23 08:34:52;;;;;;;9.77;1.83;;;;;;;;;;5114138;28;20314;-28
2024/02/23 08:37:17;;;;;;;8.63;1.58;;;;;;;;;;5113596;28;20285;-28
2024/02/23 08:39:43;;;;;;;6.50;1.73;;;;;;;;;;5114199;28;20062;-28
2024/02/23 08:42:08;;;;;;;8.87;1.70;;;;;;;;;;5113658;28;20016;-28
2024/02/23 08:44:33;;;;;;;7.72;1.70;;;;;;;;;;5113551;28;20265;-29
2024/02/23 08:46:58;;;;;;;9.00;1.70;;;;;;;;;;5114085;28;20024;-29
2024/02/23 08:49:23;;;;;;;6.33;1.80;;;;;;;;;;5113709;28;20274;-28
2024/02/23 08:51:48;;;;;;;7.60;1.93;;;;;;;;;;5113511;28;20269;-28
2024/02/23 08:54:14;;;;;;;7.20;2.00;;;;;;;;;;5115056;28;20246;-28
2024/02/23 08:56:39;;;;;;;9.17;1.80;;;;;;;;;;5117560;28;20340;-29
2024/02/23 08:59:05;;;;;;;8.63;1.98;;;;;;;;;;5117559;28;20268;-28
2024/02/23 09:01:30;;;;;;;5.95;1.88;;;;;;;;;;5117487;28;20020;-28
2024/02/23 09:03:55;;;;;;;10.52;2.10;;;;;;;;;;5117644;28;20051;-29
2024/02/23 09:06:20;;;;;;;7.90;2.00;;;;;;;;;;5117352;28;20023;-28
2024/02/23 09:08:45;;;;;;;6.57;1.85;;;;;;;;;;5117888;28;20276;-28
2024/02/23 09:11:13;;;;;;;14.60;2.53;;;;;;;;;;5117759;28;20032;-29
2024/02/23 09:13:38;;;;;;;7.40;1.83;;;;;;;;;;5117548;28;20393;-29
2024/02/23 09:16:03;;;;;;;11.95;1.88;;;;;;;;;;5117774;28;20030;-29
2024/02/23 09:18:28;;;;;;;6.90;1.73;;;;;;;;;;5117760;28;20027;-28
2024/02/23 09:20:54;;;;;;;11.37;2.43;;;;;;;;;;5098894;28;20023;-28
2024/02/23 09:23:19;;;;;;;6.77;1.87;;;;;;;;;;5117679;28;20281;-29
2024/02/23 09:25:44;;;;;;;10.55;2.20;;;;;;;;;;5117058;28;20281;-28
2024/02/23 09:28:11;;;;;;;7.83;1.83;;;;;;;;;;5116992;28;20016;-32
2024/02/23 09:30:36;;;;;;;6.47;1.95;;;;;;;;;;5117162;28;20254;-28
2024/02/23 09:33:01;;;;;;;10.18;2.53;;;;;;;;;;5116904;28;20375;-28
2024/02/23 09:35:26;;;;;;;9.57;2.07;;;;;;;;;;5117463;28;20016;-28
2024/02/23 09:37:52;;;;;;;7.20;2.00;;;;;;;;;;5116826;28;20803;-28
2024/02/23 09:40:17;;;;;;;7.55;2.38;;;;;;;;;;5116766;28;20254;-28
2024/02/23 09:42:43;;;;;;;4.63;1.38;;;;;;;;;;5117065;28;20019;-28
2024/02/23 09:45:11;;;;;;;9.20;1.90;;;;;;;;;;5114588;28;20459;-28
2024/02/23 09:47:36;;;;;;;10.32;2.05;;;;;;;;;;5114664;28;20016;-28
2024/02/23 09:50:03;;;;;;;6.30;1.83;;;;;;;;;;5114471;28;20422;-28
2024/02/23 09:52:28;;;;;;;8.40;1.92;;;;;;;;;;5114892;28;20498;-29
2024/02/23 09:54:54;;;;;;;6.63;2.10;;;;;;;;;;5114901;28;20058;-29
2024/02/23 09:57:20;;;;;;;9.23;2.30;;;;;;;;;;5116369;28;20111;-29
2024/02/23 09:59:48;;;;;;;4.90;1.60;;;;;;;;;;5116897;28;20028;-29
2024/02/23 10:02:15;;;;;;;7.25;1.63;;;;;;;;;;5116630;28;20020;-28
2024/02/23 10:04:41;;;;;;;6.15;1.70;;;;;;;;;;5116571;28;20044;-28
2024/02/23 10:07:06;;;;;;;6.95;1.90;;;;;;;;;;5113992;28;20027;-29
2024/02/23 10:09:31;;;;;;;11.60;1.75;;;;;;;;;;5115576;28;20020;-28
2024/02/23 10:11:57;;;;;;;5.40;1.65;;;;;;;;;;5115974;28;20531;-28
2024/02/23 10:14:22;;;;;;;6.05;1.80;;;;;;;;;;5115781;28;20095;-29
2024/02/23 10:16:48;;;;;;;8.07;1.85;;;;;;;;;;5116630;28;20106;-29
2024/02/23 10:19:13;;;;;;;6.78;1.98;;;;;;;;;;5116319;28;20096;-28
2024/02/23 10:21:38;;;;;;;8.67;2.03;;;;;;;;;;5115978;28;20490;-29
2024/02/23 10:24:04;;;;;;;6.25;2.20;;;;;;;;;;5115941;28;20258;-28
2024/02/23 10:26:30;;;;;;;8.95;2.03;;;;;;;;;;5115555;28;20483;-29
2024/02/23 10:28:55;;;;;;;5.77;2.10;;;;;;;;;;5115787;28;20024;-28
2024/02/23 10:31:21;;;;;;;2.47;1.48;;;;;;;;;;5115767;28;20300;-28
2024/02/23 10:33:47;;;;;;;6.97;2.30;;;;;;;;;;5115693;28;20018;-29
2024/02/23 10:36:15;;;;;;;7.85;2.28;;;;;;;;;;5115906;28;20092;-28
2024/02/23 10:38:41;;;;;;;7.00;2.33;;;;;;;;;;5115678;28;20095;-30
2024/02/23 10:41:08;;;;;;;7.63;1.90;;;;;;;;;;5115605;28;20015;-29
2024/02/23 10:43:38;;;;;;;6.35;2.22;;;;;;;;;;5115505;28;20090;-28
2024/02/23 10:46:07;;;;;;;6.57;1.60;;;;;;;;;;5115443;28;20028;-29
2024/02/23 10:48:34;;;;;;;6.53;2.00;;;;;;;;;;5114497;28;20015;-29
2024/02/23 10:51:00;;;;;;;5.72;2.10;;;;;;;;;;5115520;28;20027;-30
2024/02/23 10:53:25;;;;;;;4.88;2.05;;;;;;;;;;5113327;28;20086;-29
2024/02/23 10:55:57;;;;;;;7.80;1.88;;;;;;;;;;5114170;28;20091;-29
2024/02/23 10:58:22;;;;;;;8.43;2.20;;;;;;;;;;5114781;28;20026;-29
2024/02/23 11:00:48;;;;;;;7.20;2.22;;;;;;;;;;5115379;28;20024;-29
2024/02/23 11:03:14;;;;;;;5.82;2.05;;;;;;;;;;5114845;28;20064;-29
2024/02/23 11:05:39;;;;;;;7.80;2.20;;;;;;;;;;5115179;28;20031;-29
2024/02/23 11:08:06;;;;;;;6.75;2.15;;;;;;;;;;5114950;28;20177;-29
2024/02/23 11:10:31;;;;;;;8.32;1.98;;;;;;;;;;5115721;28;20023;-29
2024/02/23 11:13:02;;;;;;;7.40;2.10;;;;;;;;;;5115325;28;20012;-29
2024/02/23 11:15:28;;;;;;;12.45;2.70;;;;;;;;;;5114877;28;20306;-29
2024/02/23 11:17:54;;;;;;;4.70;1.95;;;;;;;;;;5113642;28;20509;-29
2024/02/23 11:20:23;;;;;;;7.65;2.17;;;;;;;;;;5115262;28;20482;-29
2024/02/23 11:22:51;;;;;;;4.25;2.00;;;;;;;;;;5114663;28;20063;-29
2024/02/23 11:25:17;;;;;;;9.05;2.20;;;;;;;;;;5096252;28;20020;-30
2024/02/23 11:27:43;;;;;;;6.25;2.00;;;;;;;;;;5115615;28;20011;-29
2024/02/23 11:30:12;;;;;;;5.32;1.65;;;;;;;;;;5114707;28;20362;-29
2024/02/23 11:32:39;;;;;;;5.18;1.90;;;;;;;;;;5114275;28;20094;-29
2024/02/23 11:35:06;;;;;;;7.15;1.90;;;;;;;;;;5114454;28;20011;-29
2024/02/23 11:37:31;;;;;;;3.95;1.70;;;;;;;;;;5114277;28;20024;-29
2024/02/23 11:39:56;;;;;;;7.07;1.90;;;;;;;;;;5114337;28;20019;-29
2024/02/23 11:42:23;;;;;;;7.03;1.85;;;;;;;;;;5114234;28;20254;-29
2024/02/23 11:44:49;;;;;;;5.70;1.85;;;;;;;;;;5114247;28;20047;-29
2024/02/23 11:47:16;;;;;;;5.38;1.70;;;;;;;;;;5113858;28;20019;-29
2024/02/23 11:49:41;;;;;;;4.70;1.55;;;;;;;;;;5114580;28;20102;-29
2024/02/23 11:52:07;;;;;;;9.68;2.05;;;;;;;;;;5114023;28;20411;-29
2024/02/23 11:54:32;;;;;;;3.83;1.73;;;;;;;;;;5114501;28;20094;-29
2024/02/23 11:56:57;;;;;;;5.25;1.80;;;;;;;;;;5114216;28;20027;-29
2024/02/23 11:59:23;;;;;;;8.27;2.00;;;;;;;;;;5114973;28;20098;-30
2024/02/23 12:01:48;;;;;;;6.22;1.73;;;;;;;;;;5114624;28;20020;-30
2024/02/23 12:04:14;;;;;;;6.28;1.90;;;;;;;;;;5114049;28;20065;-29
2024/02/23 12:06:39;;;;;;;6.93;2.08;;;;;;;;;;5113948;28;20094;-29
2024/02/23 12:09:05;;;;;;;9.27;2.10;;;;;;;;;;5113990;28;20020;-29
